sensor_id;sensor_type;location;lat;lon;timestamp;P1;durP1;ratioP1;P2;durP2;ratioP2
42978;SDS011;28616;44.746;19.678;2023-04-03T00:00:28;14.07;;;8.73;;
42978;SDS011;28616;44.746;19.678;2023-04-03T00:02:54;15.65;;;9.38;;
42978;SDS011;28616;44.746;19.678;2023-04-03T00:05:20;13.75;;;8.98;;
42978;SDS011;28616;44.746;19.678;2023-04-03T00:07:45;14.45;;;8.73;;
42978;SDS011;28616;44.746;19.678;2023-04-03T00:10:11;15.57;;;8.48;;
42978;SDS011;28616;44.746;19.678;2023-04-03T00:12:37;17.02;;;8.85;;
42978;SDS011;28616;44.746;19.678;2023-04-03T00:15:03;14.57;;;8.90;;
42978;SDS011;28616;44.746;19.678;2023-04-03T00:17:29;12.38;;;8.00;;
42978;SDS011;28616;44.746;19.678;2023-04-03T00:19:55;14.90;;;9.02;;
42978;SDS011;28616;44.746;19.678;2023-04-03T00:22:21;14.27;;;7.55;;
42978;SDS011;28616;44.746;19.678;2023-04-03T00:24:46;12.23;;;7.50;;
42978;SDS011;28616;44.746;19.678;2023-04-03T00:27:12;12.07;;;6.63;;
42978;SDS011;28616;44.746;19.678;2023-04-03T00:29:38;18.13;;;8.45;;
42978;SDS011;28616;44.746;19.678;2023-04-03T00:32:04;15.38;;;8.38;;
42978;SDS011;28616;44.746;19.678;2023-04-03T00:34:29;15.48;;;8.45;;
42978;SDS011;28616;44.746;19.678;2023-04-03T00:36:55;16.27;;;8.25;;
42978;SDS011;28616;44.746;19.678;2023-04-03T00:39:22;17.90;;;9.55;;
42978;SDS011;28616;44.746;19.678;2023-04-03T00:41:48;12.52;;;8.02;;
42978;SDS011;28616;44.746;19.678;2023-04-03T00:44:20;16.10;;;9.32;;
42978;SDS011;28616;44.746;19.678;2023-04-03T00:46:47;14.50;;;10.27;;
42978;SDS011;28616;44.746;19.678;2023-04-03T00:49:13;15.45;;;8.75;;
42978;SDS011;28616;44.746;19.678;2023-04-03T00:51:39;22.25;;;8.52;;
42978;SDS011;28616;44.746;19.678;2023-04-03T00:54:05;16.55;;;7.95;;
42978;SDS011;28616;44.746;19.678;2023-04-03T00:56:33;17.73;;;8.52;;
42978;SDS011;28616;44.746;19.678;2023-04-03T00:59:06;20.98;;;8.73;;
42978;SDS011;28616;44.746;19.678;2023-04-03T01:01:38;14.43;;;8.25;;
42978;SDS011;28616;44.746;19.678;2023-04-03T01:04:04;15.25;;;8.45;;
42978;SDS011;28616;44.746;19.678;2023-04-03T01:06:35;15.52;;;9.25;;
42978;SDS011;28616;44.746;19.678;2023-04-03T01:09:02;16.45;;;9.68;;
42978;SDS011;28616;44.746;19.678;2023-04-03T01:11:29;14.77;;;8.65;;
42978;SDS011;28616;44.746;19.678;2023-04-03T01:13:55;13.95;;;7.53;;
42978;SDS011;28616;44.746;19.678;2023-04-03T01:16:21;13.88;;;8.32;;
42978;SDS011;28616;44.746;19.678;2023-04-03T01:18:47;14.63;;;7.75;;
42978;SDS011;28616;44.746;19.678;2023-04-03T01:24:05;17.67;;;8.82;;
42978;SDS011;28616;44.746;19.678;2023-04-03T01:26:42;15.95;;;9.43;;
42978;SDS011;28616;44.746;19.678;2023-04-03T01:29:08;16.85;;;8.38;;
42978;SDS011;28616;44.746;19.678;2023-04-03T01:34:00;14.93;;;8.68;;
42978;SDS011;28616;44.746;19.678;2023-04-03T01:36:28;17.60;;;9.95;;
42978;SDS011;28616;44.746;19.678;2023-04-03T01:38:56;14.98;;;8.73;;
42978;SDS011;28616;44.746;19.678;2023-04-03T01:41:23;14.35;;;9.32;;
42978;SDS011;28616;44.746;19.678;2023-04-03T01:43:49;15.45;;;8.65;;
42978;SDS011;28616;44.746;19.678;2023-04-03T01:46:18;13.48;;;8.07;;
42978;SDS011;28616;44.746;19.678;2023-04-03T01:48:44;16.10;;;8.70;;
42978;SDS011;28616;44.746;19.678;2023-04-03T01:51:10;16.35;;;8.75;;
42978;SDS011;28616;44.746;19.678;2023-04-03T01:53:36;14.32;;;8.70;;
42978;SDS011;28616;44.746;19.678;2023-04-03T01:56:02;15.43;;;8.90;;
42978;SDS011;28616;44.746;19.678;2023-04-03T01:58:28;16.60;;;8.68;;
42978;SDS011;28616;44.746;19.678;2023-04-03T02:00:54;16.02;;;8.45;;
42978;SDS011;28616;44.746;19.678;2023-04-03T02:03:20;14.05;;;8.18;;
42978;SDS011;28616;44.746;19.678;2023-04-03T02:05:46;16.08;;;8.30;;
42978;SDS011;28616;44.746;19.678;2023-04-03T02:08:12;12.77;;;7.80;;
42978;SDS011;28616;44.746;19.678;2023-04-03T02:10:38;16.23;;;9.27;;
42978;SDS011;28616;44.746;19.678;2023-04-03T02:13:04;14.98;;;8.43;;
42978;SDS011;28616;44.746;19.678;2023-04-03T02:15:30;16.92;;;8.88;;
42978;SDS011;28616;44.746;19.678;2023-04-03T02:17:56;16.85;;;9.15;;
42978;SDS011;28616;44.746;19.678;2023-04-03T02:20:22;16.20;;;8.75;;
42978;SDS011;28616;44.746;19.678;2023-04-03T02:22:48;16.88;;;8.10;;
42978;SDS011;28616;44.746;19.678;2023-04-03T02:25:13;16.35;;;8.55;;
42978;SDS011;28616;44.746;19.678;2023-04-03T02:27:39;13.50;;;7.55;;
42978;SDS011;28616;44.746;19.678;2023-04-03T02:30:06;15.20;;;7.82;;
42978;SDS011;28616;44.746;19.678;2023-04-03T02:32:32;13.70;;;8.18;;
42978;SDS011;28616;44.746;19.678;2023-04-03T02:34:57;13.13;;;7.43;;
42978;SDS011;28616;44.746;19.678;2023-04-03T02:37:23;13.10;;;8.20;;
42978;SDS011;28616;44.746;19.678;2023-04-03T02:39:49;11.85;;;6.60;;
42978;SDS011;28616;44.746;19.678;2023-04-03T02:42:15;14.13;;;7.88;;
42978;SDS011;28616;44.746;19.678;2023-04-03T02:44:41;15.07;;;8.10;;
42978;SDS011;28616;44.746;19.678;2023-04-03T02:47:06;12.90;;;7.65;;
42978;SDS011;28616;44.746;19.678;2023-04-03T02:49:32;15.50;;;8.13;;
42978;SDS011;28616;44.746;19.678;2023-04-03T02:51:58;11.45;;;6.85;;
42978;SDS011;28616;44.746;19.678;2023-04-03T02:54:24;14.25;;;8.30;;
42978;SDS011;28616;44.746;19.678;2023-04-03T02:56:53;16.83;;;8.10;;
42978;SDS011;28616;44.746;19.678;2023-04-03T02:59:19;17.08;;;8.70;;
42978;SDS011;28616;44.746;19.678;2023-04-03T03:01:45;14.88;;;8.85;;
42978;SDS011;28616;44.746;19.678;2023-04-03T03:04:11;16.80;;;8.65;;
42978;SDS011;28616;44.746;19.678;2023-04-03T03:06:37;17.42;;;9.23;;
42978;SDS011;28616;44.746;19.678;2023-04-03T03:09:03;16.35;;;9.35;;
42978;SDS011;28616;44.746;19.678;2023-04-03T03:11:29;16.08;;;8.95;;
42978;SDS011;28616;44.746;19.678;2023-04-03T03:13:55;13.63;;;8.48;;
42978;SDS011;28616;44.746;19.678;2023-04-03T03:16:21;17.42;;;9.07;;
42978;SDS011;28616;44.746;19.678;2023-04-03T03:18:46;17.80;;;9.52;;
42978;SDS011;28616;44.746;19.678;2023-04-03T03:21:12;19.05;;;9.80;;
42978;SDS011;28616;44.746;19.678;2023-04-03T03:23:38;16.48;;;10.18;;
42978;SDS011;28616;44.746;19.678;2023-04-03T03:26:05;17.38;;;9.10;;
42978;SDS011;28616;44.746;19.678;2023-04-03T03:28:33;17.45;;;9.55;;
42978;SDS011;28616;44.746;19.678;2023-04-03T03:31:00;14.95;;;8.60;;
42978;SDS011;28616;44.746;19.678;2023-04-03T03:33:26;17.17;;;9.65;;
42978;SDS011;28616;44.746;19.678;2023-04-03T03:35:52;19.00;;;10.93;;
42978;SDS011;28616;44.746;19.678;2023-04-03T03:38:19;17.02;;;9.30;;
42978;SDS011;28616;44.746;19.678;2023-04-03T03:40:46;17.55;;;10.10;;
42978;SDS011;28616;44.746;19.678;2023-04-03T03:43:13;19.80;;;10.65;;
42978;SDS011;28616;44.746;19.678;2023-04-03T03:45:39;20.35;;;11.15;;
42978;SDS011;28616;44.746;19.678;2023-04-03T03:48:05;21.05;;;10.57;;
42978;SDS011;28616;44.746;19.678;2023-04-03T03:50:31;20.60;;;10.05;;
42978;SDS011;28616;44.746;19.678;2023-04-03T03:52:57;17.95;;;9.90;;
42978;SDS011;28616;44.746;19.678;2023-04-03T03:55:23;15.80;;;10.73;;
42978;SDS011;28616;44.746;19.678;2023-04-03T03:57:48;14.52;;;8.90;;
42978;SDS011;28616;44.746;19.678;2023-04-03T04:00:14;20.33;;;13.63;;
42978;SDS011;28616;44.746;19.678;2023-04-03T04:02:41;21.27;;;9.95;;
42978;SDS011;28616;44.746;19.678;2023-04-03T04:05:07;22.23;;;11.65;;
42978;SDS011;28616;44.746;19.678;2023-04-03T04:07:33;17.88;;;10.32;;
42978;SDS011;28616;44.746;19.678;2023-04-03T04:09:59;19.60;;;9.73;;
42978;SDS011;28616;44.746;19.678;2023-04-03T04:12:25;20.30;;;12.75;;
42978;SDS011;28616;44.746;19.678;2023-04-03T04:14:51;21.13;;;11.32;;
42978;SDS011;28616;44.746;19.678;2023-04-03T04:17:16;25.40;;;10.90;;
42978;SDS011;28616;44.746;19.678;2023-04-03T04:19:43;19.77;;;10.18;;
42978;SDS011;28616;44.746;19.678;2023-04-03T04:22:08;17.95;;;9.75;;
42978;SDS011;28616;44.746;19.678;2023-04-03T04:24:34;20.88;;;10.63;;
42978;SDS011;28616;44.746;19.678;2023-04-03T04:27:00;19.65;;;10.35;;
42978;SDS011;28616;44.746;19.678;2023-04-03T04:29:25;22.40;;;12.25;;
42978;SDS011;28616;44.746;19.678;2023-04-03T04:31:51;28.83;;;13.80;;
42978;SDS011;28616;44.746;19.678;2023-04-03T04:34:17;26.67;;;13.27;;
42978;SDS011;28616;44.746;19.678;2023-04-03T04:36:42;29.35;;;13.30;;
42978;SDS011;28616;44.746;19.678;2023-04-03T04:39:08;31.52;;;14.65;;
42978;SDS011;28616;44.746;19.678;2023-04-03T04:41:34;28.20;;;13.38;;
42978;SDS011;28616;44.746;19.678;2023-04-03T04:44:00;26.20;;;13.32;;
42978;SDS011;28616;44.746;19.678;2023-04-03T04:46:26;23.20;;;11.48;;
42978;SDS011;28616;44.746;19.678;2023-04-03T04:48:52;28.35;;;14.13;;
42978;SDS011;28616;44.746;19.678;2023-04-03T04:51:18;26.45;;;13.98;;
42978;SDS011;28616;44.746;19.678;2023-04-03T04:53:43;30.30;;;15.02;;
42978;SDS011;28616;44.746;19.678;2023-04-03T04:56:10;30.05;;;14.55;;
42978;SDS011;28616;44.746;19.678;2023-04-03T04:58:35;24.88;;;13.25;;
42978;SDS011;28616;44.746;19.678;2023-04-03T05:01:02;23.63;;;12.38;;
42978;SDS011;28616;44.746;19.678;2023-04-03T05:03:30;28.48;;;13.32;;
42978;SDS011;28616;44.746;19.678;2023-04-03T05:05:56;29.95;;;13.45;;
42978;SDS011;28616;44.746;19.678;2023-04-03T05:08:22;29.40;;;13.52;;
42978;SDS011;28616;44.746;19.678;2023-04-03T05:10:48;37.35;;;14.10;;
42978;SDS011;28616;44.746;19.678;2023-04-03T05:13:14;26.30;;;13.13;;
42978;SDS011;28616;44.746;19.678;2023-04-03T05:15:40;33.15;;;13.77;;
42978;SDS011;28616;44.746;19.678;2023-04-03T05:18:06;35.42;;;15.43;;
42978;SDS011;28616;44.746;19.678;2023-04-03T05:20:32;41.92;;;17.80;;
42978;SDS011;28616;44.746;19.678;2023-04-03T05:22:58;56.25;;;22.27;;
42978;SDS011;28616;44.746;19.678;2023-04-03T05:25:25;38.50;;;18.55;;
42978;SDS011;28616;44.746;19.678;2023-04-03T05:27:51;33.22;;;17.58;;
42978;SDS011;28616;44.746;19.678;2023-04-03T05:30:16;33.42;;;14.27;;
42978;SDS011;28616;44.746;19.678;2023-04-03T05:32:42;31.30;;;14.55;;
42978;SDS011;28616;44.746;19.678;2023-04-03T05:35:09;31.13;;;14.85;;
42978;SDS011;28616;44.746;19.678;2023-04-03T05:37:35;34.17;;;17.23;;
42978;SDS011;28616;44.746;19.678;2023-04-03T05:40:02;34.30;;;16.17;;
42978;SDS011;28616;44.746;19.678;2023-04-03T05:42:32;40.88;;;18.52;;
42978;SDS011;28616;44.746;19.678;2023-04-03T05:44:57;46.90;;;22.65;;
42978;SDS011;28616;44.746;19.678;2023-04-03T05:47:24;39.92;;;20.05;;
42978;SDS011;28616;44.746;19.678;2023-04-03T05:49:49;39.33;;;18.90;;
42978;SDS011;28616;44.746;19.678;2023-04-03T05:52:18;41.45;;;18.58;;
42978;SDS011;28616;44.746;19.678;2023-04-03T05:54:48;39.42;;;19.08;;
42978;SDS011;28616;44.746;19.678;2023-04-03T05:57:14;43.05;;;19.45;;
42978;SDS011;28616;44.746;19.678;2023-04-03T05:59:41;39.47;;;18.92;;
42978;SDS011;28616;44.746;19.678;2023-04-03T06:02:10;41.58;;;18.58;;
42978;SDS011;28616;44.746;19.678;2023-04-03T06:04:37;41.78;;;16.63;;
42978;SDS011;28616;44.746;19.678;2023-04-03T06:07:03;45.00;;;20.95;;
42978;SDS011;28616;44.746;19.678;2023-04-03T06:09:29;55.58;;;26.23;;
42978;SDS011;28616;44.746;19.678;2023-04-03T06:11:55;54.92;;;25.88;;
42978;SDS011;28616;44.746;19.678;2023-04-03T06:14:23;50.08;;;24.00;;
42978;SDS011;28616;44.746;19.678;2023-04-03T06:16:49;34.70;;;18.90;;
42978;SDS011;28616;44.746;19.678;2023-04-03T06:19:15;31.85;;;16.20;;
42978;SDS011;28616;44.746;19.678;2023-04-03T06:21:41;44.47;;;22.15;;
42978;SDS011;28616;44.746;19.678;2023-04-03T06:24:07;40.78;;;18.88;;
42978;SDS011;28616;44.746;19.678;2023-04-03T06:26:33;42.17;;;20.05;;
42978;SDS011;28616;44.746;19.678;2023-04-03T06:28:59;51.55;;;21.52;;
42978;SDS011;28616;44.746;19.678;2023-04-03T06:31:25;40.92;;;19.83;;
42978;SDS011;28616;44.746;19.678;2023-04-03T06:33:51;36.70;;;18.00;;
42978;SDS011;28616;44.746;19.678;2023-04-03T06:36:17;38.72;;;18.02;;
42978;SDS011;28616;44.746;19.678;2023-04-03T06:38:45;29.55;;;15.32;;
42978;SDS011;28616;44.746;19.678;2023-04-03T06:41:12;28.88;;;14.60;;
42978;SDS011;28616;44.746;19.678;2023-04-03T06:43:37;23.23;;;12.23;;
42978;SDS011;28616;44.746;19.678;2023-04-03T06:46:03;27.38;;;13.93;;
42978;SDS011;28616;44.746;19.678;2023-04-03T06:48:30;25.08;;;12.75;;
42978;SDS011;28616;44.746;19.678;2023-04-03T06:50:56;22.05;;;12.13;;
42978;SDS011;28616;44.746;19.678;2023-04-03T06:53:21;30.95;;;14.73;;
42978;SDS011;28616;44.746;19.678;2023-04-03T06:55:47;25.73;;;12.35;;
42978;SDS011;28616;44.746;19.678;2023-04-03T06:58:13;23.83;;;13.10;;
42978;SDS011;28616;44.746;19.678;2023-04-03T07:00:40;27.42;;;14.00;;
42978;SDS011;28616;44.746;19.678;2023-04-03T07:03:06;27.50;;;14.10;;
42978;SDS011;28616;44.746;19.678;2023-04-03T07:05:33;19.10;;;10.90;;
42978;SDS011;28616;44.746;19.678;2023-04-03T07:07:59;24.58;;;12.55;;
42978;SDS011;28616;44.746;19.678;2023-04-03T07:10:25;18.80;;;10.07;;
42978;SDS011;28616;44.746;19.678;2023-04-03T07:12:51;24.52;;;12.90;;
42978;SDS011;28616;44.746;19.678;2023-04-03T07:15:17;37.10;;;20.02;;
42978;SDS011;28616;44.746;19.678;2023-04-03T07:17:43;33.67;;;16.27;;
42978;SDS011;28616;44.746;19.678;2023-04-03T07:20:09;33.40;;;16.65;;
42978;SDS011;28616;44.746;19.678;2023-04-03T07:22:36;40.45;;;20.60;;
42978;SDS011;28616;44.746;19.678;2023-04-03T07:25:02;37.50;;;19.27;;
42978;SDS011;28616;44.746;19.678;2023-04-03T07:27:28;29.25;;;14.95;;
42978;SDS011;28616;44.746;19.678;2023-04-03T07:29:54;27.38;;;14.25;;
42978;SDS011;28616;44.746;19.678;2023-04-03T07:32:21;32.92;;;16.38;;
42978;SDS011;28616;44.746;19.678;2023-04-03T07:34:46;23.38;;;13.07;;
42978;SDS011;28616;44.746;19.678;2023-04-03T07:37:12;38.67;;;19.30;;
42978;SDS011;28616;44.746;19.678;2023-04-03T07:39:38;48.25;;;25.23;;
42978;SDS011;28616;44.746;19.678;2023-04-03T07:42:04;42.92;;;21.48;;
42978;SDS011;28616;44.746;19.678;2023-04-03T07:44:29;40.03;;;20.55;;
42978;SDS011;28616;44.746;19.678;2023-04-03T07:46:56;59.35;;;27.60;;
42978;SDS011;28616;44.746;19.678;2023-04-03T07:49:21;95.38;;;45.92;;
42978;SDS011;28616;44.746;19.678;2023-04-03T07:51:51;113.53;;;53.33;;
42978;SDS011;28616;44.746;19.678;2023-04-03T07:54:18;158.85;;;70.70;;
42978;SDS011;28616;44.746;19.678;2023-04-03T07:56:44;85.72;;;39.55;;
42978;SDS011;28616;44.746;19.678;2023-04-03T07:59:10;101.28;;;51.75;;
42978;SDS011;28616;44.746;19.678;2023-04-03T08:01:36;80.13;;;44.20;;
42978;SDS011;28616;44.746;19.678;2023-04-03T08:04:02;76.55;;;36.63;;
42978;SDS011;28616;44.746;19.678;2023-04-03T08:06:28;60.60;;;27.35;;
42978;SDS011;28616;44.746;19.678;2023-04-03T08:08:56;41.42;;;20.33;;
42978;SDS011;28616;44.746;19.678;2023-04-03T08:11:23;47.38;;;22.52;;
42978;SDS011;28616;44.746;19.678;2023-04-03T08:13:51;82.90;;;36.63;;
42978;SDS011;28616;44.746;19.678;2023-04-03T08:16:18;71.72;;;32.80;;
42978;SDS011;28616;44.746;19.678;2023-04-03T08:18:47;54.13;;;24.48;;
42978;SDS011;28616;44.746;19.678;2023-04-03T08:21:13;50.33;;;23.73;;
42978;SDS011;28616;44.746;19.678;2023-04-03T08:23:39;49.67;;;21.98;;
42978;SDS011;28616;44.746;19.678;2023-04-03T08:26:11;47.03;;;24.15;;
42978;SDS011;28616;44.746;19.678;2023-04-03T08:28:38;49.88;;;22.45;;
42978;SDS011;28616;44.746;19.678;2023-04-03T08:31:05;41.42;;;22.27;;
42978;SDS011;28616;44.746;19.678;2023-04-03T08:33:32;41.05;;;21.05;;
42978;SDS011;28616;44.746;19.678;2023-04-03T08:36:00;36.85;;;19.52;;
42978;SDS011;28616;44.746;19.678;2023-04-03T08:38:26;34.50;;;18.70;;
42978;SDS011;28616;44.746;19.678;2023-04-03T08:41:10;36.92;;;18.35;;
42978;SDS011;28616;44.746;19.678;2023-04-03T08:46:15;32.42;;;17.95;;
42978;SDS011;28616;44.746;19.678;2023-04-03T08:48:46;41.47;;;20.52;;
42978;SDS011;28616;44.746;19.678;2023-04-03T08:51:16;39.30;;;20.20;;
42978;SDS011;28616;44.746;19.678;2023-04-03T08:53:55;29.88;;;15.65;;
42978;SDS011;28616;44.746;19.678;2023-04-03T08:56:39;30.40;;;17.27;;
42978;SDS011;28616;44.746;19.678;2023-04-03T08:59:09;29.40;;;15.63;;
42978;SDS011;28616;44.746;19.678;2023-04-03T09:01:39;30.67;;;16.35;;
42978;SDS011;28616;44.746;19.678;2023-04-03T09:04:10;31.13;;;16.23;;
42978;SDS011;28616;44.746;19.678;2023-04-03T09:06:39;29.23;;;15.85;;
42978;SDS011;28616;44.746;19.678;2023-04-03T09:09:41;29.25;;;15.18;;
42978;SDS011;28616;44.746;19.678;2023-04-03T09:12:12;34.03;;;17.88;;
42978;SDS011;28616;44.746;19.678;2023-04-03T09:15:08;38.90;;;20.08;;
42978;SDS011;28616;44.746;19.678;2023-04-03T09:26:09;26.52;;;15.20;;
42978;SDS011;28616;44.746;19.678;2023-04-03T09:28:42;28.73;;;14.95;;
42978;SDS011;28616;44.746;19.678;2023-04-03T09:31:19;24.67;;;12.60;;
42978;SDS011;28616;44.746;19.678;2023-04-03T09:33:49;24.65;;;15.77;;
42978;SDS011;28616;44.746;19.678;2023-04-03T09:39:12;23.40;;;12.93;;
42978;SDS011;28616;44.746;19.678;2023-04-03T09:41:39;25.20;;;14.23;;
42978;SDS011;28616;44.746;19.678;2023-04-03T09:44:18;24.55;;;12.00;;
42978;SDS011;28616;44.746;19.678;2023-04-03T09:46:47;28.93;;;14.83;;
42978;SDS011;28616;44.746;19.678;2023-04-03T09:49:13;21.58;;;14.13;;
42978;SDS011;28616;44.746;19.678;2023-04-03T09:51:38;22.65;;;13.43;;
42978;SDS011;28616;44.746;19.678;2023-04-03T09:57:12;24.27;;;11.95;;
42978;SDS011;28616;44.746;19.678;2023-04-03T09:59:41;30.65;;;13.50;;
42978;SDS011;28616;44.746;19.678;2023-04-03T10:05:00;21.92;;;12.27;;
42978;SDS011;28616;44.746;19.678;2023-04-03T10:07:34;26.48;;;13.25;;
42978;SDS011;28616;44.746;19.678;2023-04-03T10:12:39;24.42;;;12.43;;
42978;SDS011;28616;44.746;19.678;2023-04-03T10:15:11;20.77;;;11.85;;
42978;SDS011;28616;44.746;19.678;2023-04-03T10:17:49;42.97;;;20.23;;
42978;SDS011;28616;44.746;19.678;2023-04-03T10:23:29;33.05;;;17.77;;
42978;SDS011;28616;44.746;19.678;2023-04-03T10:34:48;29.80;;;15.25;;
42978;SDS011;28616;44.746;19.678;2023-04-03T10:37:29;21.55;;;12.85;;
42978;SDS011;28616;44.746;19.678;2023-04-03T10:40:04;24.08;;;12.52;;
42978;SDS011;28616;44.746;19.678;2023-04-03T10:45:47;20.75;;;11.70;;
42978;SDS011;28616;44.746;19.678;2023-04-03T10:48:25;28.42;;;13.80;;
42978;SDS011;28616;44.746;19.678;2023-04-03T10:54:03;28.75;;;14.00;;
42978;SDS011;28616;44.746;19.678;2023-04-03T11:01:57;24.23;;;12.45;;
42978;SDS011;28616;44.746;19.678;2023-04-03T11:04:29;28.15;;;13.25;;
42978;SDS011;28616;44.746;19.678;2023-04-03T11:07:04;24.37;;;13.70;;
42978;SDS011;28616;44.746;19.678;2023-04-03T11:09:37;28.50;;;14.63;;
42978;SDS011;28616;44.746;19.678;2023-04-03T11:15:15;41.22;;;16.88;;
42978;SDS011;28616;44.746;19.678;2023-04-03T11:17:53;29.20;;;15.30;;
42978;SDS011;28616;44.746;19.678;2023-04-03T11:20:27;48.15;;;19.50;;
42978;SDS011;28616;44.746;19.678;2023-04-03T11:23:05;29.70;;;14.57;;
42978;SDS011;28616;44.746;19.678;2023-04-03T11:25:38;28.77;;;15.80;;
42978;SDS011;28616;44.746;19.678;2023-04-03T11:28:11;37.80;;;18.83;;
42978;SDS011;28616;44.746;19.678;2023-04-03T11:36:24;31.20;;;14.43;;
42978;SDS011;28616;44.746;19.678;2023-04-03T11:38:54;37.08;;;17.75;;
42978;SDS011;28616;44.746;19.678;2023-04-03T11:41:30;34.05;;;15.25;;
42978;SDS011;28616;44.746;19.678;2023-04-03T11:47:11;33.85;;;16.42;;
42978;SDS011;28616;44.746;19.678;2023-04-03T12:06:41;26.25;;;14.48;;
42978;SDS011;28616;44.746;19.678;2023-04-03T12:08:43;44.05;;;18.13;;
42978;SDS011;28616;44.746;19.678;2023-04-03T12:24:27;32.83;;;15.93;;
42978;SDS011;28616;44.746;19.678;2023-04-03T12:29:28;23.73;;;13.63;;
42978;SDS011;28616;44.746;19.678;2023-04-03T12:37:51;29.88;;;14.05;;
42978;SDS011;28616;44.746;19.678;2023-04-03T12:48:36;27.33;;;15.68;;
42978;SDS011;28616;44.746;19.678;2023-04-03T12:51:09;29.52;;;16.02;;
42978;SDS011;28616;44.746;19.678;2023-04-03T12:53:40;27.52;;;15.57;;
42978;SDS011;28616;44.746;19.678;2023-04-03T12:59:41;26.15;;;14.77;;
42978;SDS011;28616;44.746;19.678;2023-04-03T13:01:56;27.52;;;15.43;;
42978;SDS011;28616;44.746;19.678;2023-04-03T13:04:23;32.40;;;18.85;;
42978;SDS011;28616;44.746;19.678;2023-04-03T13:06:50;30.38;;;17.55;;
42978;SDS011;28616;44.746;19.678;2023-04-03T13:09:26;31.42;;;18.08;;
42978;SDS011;28616;44.746;19.678;2023-04-03T13:12:01;32.50;;;19.52;;
42978;SDS011;28616;44.746;19.678;2023-04-03T13:14:34;30.98;;;17.17;;
42978;SDS011;28616;44.746;19.678;2023-04-03T13:17:03;31.70;;;17.05;;
42978;SDS011;28616;44.746;19.678;2023-04-03T13:19:29;27.27;;;15.25;;
42978;SDS011;28616;44.746;19.678;2023-04-03T13:22:04;26.98;;;16.42;;
42978;SDS011;28616;44.746;19.678;2023-04-03T13:24:32;37.75;;;19.73;;
42978;SDS011;28616;44.746;19.678;2023-04-03T13:27:02;38.40;;;19.38;;
42978;SDS011;28616;44.746;19.678;2023-04-03T13:29:31;29.63;;;18.00;;
42978;SDS011;28616;44.746;19.678;2023-04-03T13:32:02;23.02;;;14.32;;
42978;SDS011;28616;44.746;19.678;2023-04-03T13:34:35;27.85;;;16.38;;
42978;SDS011;28616;44.746;19.678;2023-04-03T13:37:19;27.10;;;15.60;;
42978;SDS011;28616;44.746;19.678;2023-04-03T13:40:01;43.92;;;23.65;;
42978;SDS011;28616;44.746;19.678;2023-04-03T13:42:34;36.00;;;20.70;;
42978;SDS011;28616;44.746;19.678;2023-04-03T13:45:19;125.78;;;48.63;;
42978;SDS011;28616;44.746;19.678;2023-04-03T13:47:50;31.52;;;18.52;;
42978;SDS011;28616;44.746;19.678;2023-04-03T13:50:18;32.47;;;16.45;;
42978;SDS011;28616;44.746;19.678;2023-04-03T13:55:28;127.20;;;44.42;;
42978;SDS011;28616;44.746;19.678;2023-04-03T13:58:01;100.18;;;41.50;;
42978;SDS011;28616;44.746;19.678;2023-04-03T14:00:51;59.85;;;28.33;;
42978;SDS011;28616;44.746;19.678;2023-04-03T14:05:49;82.82;;;35.33;;
42978;SDS011;28616;44.746;19.678;2023-04-03T14:08:15;73.80;;;32.47;;
42978;SDS011;28616;44.746;19.678;2023-04-03T14:10:41;99.95;;;42.08;;
42978;SDS011;28616;44.746;19.678;2023-04-03T14:13:09;56.72;;;29.17;;
42978;SDS011;28616;44.746;19.678;2023-04-03T14:15:38;55.08;;;25.13;;
42978;SDS011;28616;44.746;19.678;2023-04-03T14:18:04;56.10;;;27.75;;
42978;SDS011;28616;44.746;19.678;2023-04-03T14:20:30;43.80;;;23.30;;
42978;SDS011;28616;44.746;19.678;2023-04-03T14:22:56;58.30;;;28.55;;
42978;SDS011;28616;44.746;19.678;2023-04-03T14:25:22;56.83;;;28.17;;
42978;SDS011;28616;44.746;19.678;2023-04-03T14:27:49;49.28;;;25.27;;
42978;SDS011;28616;44.746;19.678;2023-04-03T14:30:18;48.60;;;24.15;;
42978;SDS011;28616;44.746;19.678;2023-04-03T14:32:47;58.95;;;26.50;;
42978;SDS011;28616;44.746;19.678;2023-04-03T14:35:13;49.15;;;24.52;;
42978;SDS011;28616;44.746;19.678;2023-04-03T14:37:40;54.70;;;32.92;;
42978;SDS011;28616;44.746;19.678;2023-04-03T14:40:07;46.22;;;23.88;;
42978;SDS011;28616;44.746;19.678;2023-04-03T14:42:35;52.25;;;25.50;;
42978;SDS011;28616;44.746;19.678;2023-04-03T14:45:04;52.65;;;22.55;;
42978;SDS011;28616;44.746;19.678;2023-04-03T14:47:31;49.50;;;22.92;;
42978;SDS011;28616;44.746;19.678;2023-04-03T14:50:02;52.63;;;25.40;;
42978;SDS011;28616;44.746;19.678;2023-04-03T14:52:34;44.17;;;23.30;;
42978;SDS011;28616;44.746;19.678;2023-04-03T14:55:01;54.95;;;24.10;;
42978;SDS011;28616;44.746;19.678;2023-04-03T14:57:28;41.08;;;21.00;;
42978;SDS011;28616;44.746;19.678;2023-04-03T14:59:55;54.13;;;25.02;;
42978;SDS011;28616;44.746;19.678;2023-04-03T15:04:57;54.33;;;25.70;;
42978;SDS011;28616;44.746;19.678;2023-04-03T15:07:25;55.08;;;27.77;;
42978;SDS011;28616;44.746;19.678;2023-04-03T15:09:53;56.85;;;28.08;;
42978;SDS011;28616;44.746;19.678;2023-04-03T15:12:22;63.03;;;29.83;;
42978;SDS011;28616;44.746;19.678;2023-04-03T15:14:48;54.85;;;26.52;;
42978;SDS011;28616;44.746;19.678;2023-04-03T15:17:15;50.38;;;24.98;;
42978;SDS011;28616;44.746;19.678;2023-04-03T15:19:44;49.60;;;24.88;;
42978;SDS011;28616;44.746;19.678;2023-04-03T15:22:17;51.95;;;27.05;;
42978;SDS011;28616;44.746;19.678;2023-04-03T15:24:45;51.42;;;25.00;;
42978;SDS011;28616;44.746;19.678;2023-04-03T15:27:12;51.10;;;26.30;;
42978;SDS011;28616;44.746;19.678;2023-04-03T15:29:39;57.30;;;27.15;;
42978;SDS011;28616;44.746;19.678;2023-04-03T15:32:06;53.45;;;27.38;;
42978;SDS011;28616;44.746;19.678;2023-04-03T15:34:32;100.28;;;43.45;;
42978;SDS011;28616;44.746;19.678;2023-04-03T15:36:57;86.68;;;42.95;;
42978;SDS011;28616;44.746;19.678;2023-04-03T15:39:24;47.55;;;27.38;;
42978;SDS011;28616;44.746;19.678;2023-04-03T15:41:51;49.78;;;24.35;;
42978;SDS011;28616;44.746;19.678;2023-04-03T15:44:18;59.88;;;29.23;;
42978;SDS011;28616;44.746;19.678;2023-04-03T15:46:45;61.83;;;29.35;;
42978;SDS011;28616;44.746;19.678;2023-04-03T15:49:13;74.53;;;33.00;;
42978;SDS011;28616;44.746;19.678;2023-04-03T15:51:39;74.43;;;35.08;;
42978;SDS011;28616;44.746;19.678;2023-04-03T15:54:05;60.80;;;29.08;;
42978;SDS011;28616;44.746;19.678;2023-04-03T15:56:31;69.53;;;32.28;;
42978;SDS011;28616;44.746;19.678;2023-04-03T15:58:57;97.65;;;44.60;;
42978;SDS011;28616;44.746;19.678;2023-04-03T16:01:23;68.63;;;31.05;;
42978;SDS011;28616;44.746;19.678;2023-04-03T16:03:49;63.05;;;29.90;;
42978;SDS011;28616;44.746;19.678;2023-04-03T16:06:16;70.30;;;37.03;;
42978;SDS011;28616;44.746;19.678;2023-04-03T16:08:44;77.70;;;38.75;;
42978;SDS011;28616;44.746;19.678;2023-04-03T16:11:11;69.93;;;35.25;;
42978;SDS011;28616;44.746;19.678;2023-04-03T16:13:37;62.08;;;32.22;;
42978;SDS011;28616;44.746;19.678;2023-04-03T16:16:03;77.72;;;37.08;;